createdAt,value
2018-12-11T00:00:08.140Z,32.30
2018-12-11T00:02:37.333Z,32.40
2018-12-11T00:05:06.529Z,32.40
2018-12-11T00:07:35.752Z,32.30
2018-12-11T00:10:05.754Z,32.40
2018-12-11T00:12:35.760Z,32.30
2018-12-11T00:15:05.551Z,32.40
2018-12-11T00:17:34.634Z,32.40
2018-12-11T00:20:04.335Z,32.40
2018-12-11T00:22:34.564Z,32.40
2018-12-11T00:25:03.892Z,32.40
2018-12-11T00:27:33.833Z,33.20
2018-12-11T00:30:04.156Z,32.50
2018-12-11T00:32:33.829Z,32.40
2018-12-11T00:35:03.059Z,32.40
2018-12-11T00:37:34.189Z,32.40
2018-12-11T00:40:03.655Z,32.40
2018-12-11T00:42:32.848Z,32.40
2018-12-11T00:45:02.050Z,32.40
2018-12-11T00:47:32.188Z,32.40
2018-12-11T00:50:01.219Z,31.80
2018-12-11T00:52:30.799Z,32.40
2018-12-11T00:55:01.363Z,32.40
2018-12-11T00:57:31.032Z,32.40
2018-12-11T01:00:01.597Z,33.10
2018-12-11T01:02:30.702Z,32.30
2018-12-11T01:05:00.688Z,32.40
2018-12-11T01:07:29.891Z,32.40
2018-12-11T01:09:58.966Z,32.30
2018-12-11T01:12:28.241Z,32.30
2018-12-11T01:14:57.293Z,32.30
2018-12-11T01:17:27.142Z,32.20
2018-12-11T01:19:57.532Z,32.30
2018-12-11T01:22:28.315Z,32.30
2018-12-11T01:24:57.396Z,32.30
2018-12-11T01:27:27.536Z,32.40
2018-12-11T01:29:56.595Z,32.30
2018-12-11T01:32:26.459Z,32.30
2018-12-11T01:34:55.820Z,32.30
2018-12-11T01:37:24.891Z,32.30
2018-12-11T01:39:54.876Z,32.10
2018-12-11T01:42:23.969Z,32.30
2018-12-11T01:44:53.409Z,32.30
2018-12-11T01:47:22.679Z,32.40
2018-12-11T01:49:52.337Z,32.30
2018-12-11T01:52:22.295Z,32.30
2018-12-11T01:54:52.525Z,32.30
2018-12-11T01:57:22.112Z,32.30
2018-12-11T01:59:51.408Z,32.30
2018-12-11T02:02:20.466Z,32.30
2018-12-11T02:04:49.556Z,32.20
2018-12-11T02:07:19.850Z,32.30
2018-12-11T02:09:49.043Z,32.20
2018-12-11T02:12:18.962Z,32.20
2018-12-11T02:14:48.768Z,32.30
2018-12-11T02:17:18.027Z,32.30
2018-12-11T02:19:47.119Z,32.30
2018-12-11T02:22:17.602Z,32.30
2018-12-11T02:24:46.819Z,32.30
2018-12-11T02:27:16.800Z,32.30
2018-12-11T02:29:45.910Z,32.30
2018-12-11T02:32:16.626Z,32.30
2018-12-11T02:34:45.708Z,32.30
2018-12-11T02:37:14.938Z,32.30
2018-12-11T02:39:44.027Z,32.30
2018-12-11T02:42:13.139Z,32.20
2018-12-11T02:44:42.391Z,32.20
2018-12-11T02:47:12.151Z,32.30
2018-12-11T02:49:41.216Z,32.40
2018-12-11T02:52:11.031Z,32.30
2018-12-11T02:54:40.849Z,32.20
2018-12-11T02:57:10.399Z,32.20
2018-12-11T02:59:39.455Z,32.20
2018-12-11T03:02:08.710Z,32.80
2018-12-11T03:04:37.933Z,32.80
2018-12-11T03:07:07.224Z,32.20
2018-12-11T03:09:36.381Z,32.20
2018-12-11T03:12:06.257Z,32.10
2018-12-11T03:14:36.090Z,32.20
2018-12-11T03:17:05.140Z,32.10
2018-12-11T03:19:34.284Z,32.20
2018-12-11T03:22:04.271Z,32.20
2018-12-11T03:24:33.943Z,32.20
2018-12-11T03:27:03.996Z,32.20
2018-12-11T03:29:33.316Z,32.10
2018-12-11T03:32:03.721Z,32.10
2018-12-11T03:34:32.797Z,32.00
2018-12-11T03:37:01.886Z,32.00
2018-12-11T03:39:31.061Z,32.10
2018-12-11T03:42:01.661Z,32.10
2018-12-11T03:44:31.408Z,32.00
2018-12-11T03:47:01.194Z,32.00
2018-12-11T03:49:30.577Z,32.00
2018-12-11T03:52:00.997Z,32.10
2018-12-11T03:54:30.921Z,32.00
2018-12-11T03:57:00.829Z,32.10
2018-12-11T03:59:30.018Z,32.00
2018-12-11T04:01:59.826Z,32.10
2018-12-11T04:04:28.945Z,32.00
2018-12-11T04:06:58.243Z,32.00
2018-12-11T04:09:28.221Z,31.90
2018-12-11T04:11:57.401Z,32.00
2018-12-11T04:14:26.567Z,32.00
2018-12-11T04:16:55.639Z,32.00
2018-12-11T04:19:24.709Z,32.10
2018-12-11T04:21:53.838Z,32.00
2018-12-11T04:24:23.467Z,32.00
2018-12-11T04:26:54.002Z,31.90
2018-12-11T04:29:23.131Z,32.10
2018-12-11T04:31:53.383Z,32.00
2018-12-11T04:34:22.575Z,32.00
2018-12-11T04:36:52.505Z,31.90
2018-12-11T04:39:22.822Z,31.90
2018-12-11T04:41:51.960Z,31.90
2018-12-11T04:44:21.063Z,32.00
2018-12-11T04:46:50.541Z,32.00
2018-12-11T04:49:20.635Z,32.00
2018-12-11T04:51:51.172Z,31.90
2018-12-11T04:54:20.831Z,32.00
2018-12-11T04:56:50.407Z,32.00
2018-12-11T04:59:19.507Z,32.00
2018-12-11T05:01:48.679Z,32.00
2018-12-11T05:04:17.848Z,32.00
2018-12-11T05:06:47.284Z,32.00
2018-12-11T05:09:16.431Z,31.90
2018-12-11T05:11:45.524Z,31.90
2018-12-11T05:14:14.605Z,32.00
2018-12-11T05:16:43.711Z,32.00
2018-12-11T05:19:12.976Z,32.00
2018-12-11T05:21:42.120Z,32.00
2018-12-11T05:24:11.972Z,32.00
2018-12-11T05:26:41.623Z,31.70
2018-12-11T05:29:10.700Z,32.00
2018-12-11T05:31:40.792Z,32.00
2018-12-11T05:34:10.914Z,32.10
2018-12-11T05:36:40.033Z,32.00
2018-12-11T05:39:09.760Z,32.00
2018-12-11T05:41:38.839Z,32.00
2018-12-11T05:44:08.792Z,32.10
2018-12-11T05:46:38.612Z,32.00
2018-12-11T05:49:07.750Z,32.00
2018-12-11T05:51:36.836Z,31.90
2018-12-11T05:54:06.951Z,31.90
2018-12-11T05:56:36.763Z,31.80
2018-12-11T05:59:05.876Z,31.90
2018-12-11T06:01:34.944Z,31.80
2018-12-11T06:04:04.359Z,31.80
2018-12-11T06:06:33.436Z,31.80
2018-12-11T06:09:03.188Z,31.80
2018-12-11T06:11:32.299Z,31.80
2018-12-11T06:14:01.364Z,31.70
2018-12-11T06:16:31.036Z,31.90
2018-12-11T06:19:00.159Z,31.90
2018-12-11T06:21:29.695Z,32.00
2018-12-11T06:23:59.380Z,32.00
2018-12-11T06:26:29.987Z,32.70
2018-12-11T06:28:59.059Z,32.70
2018-12-11T06:31:28.800Z,32.50
2018-12-11T06:33:58.349Z,32.40
2018-12-11T06:36:27.873Z,32.30
2018-12-11T06:38:57.027Z,32.20
2018-12-11T06:41:26.095Z,32.30
2018-12-11T06:43:56.020Z,32.10
2018-12-11T06:46:25.922Z,32.40
2018-12-11T06:48:55.720Z,32.20
2018-12-11T06:51:25.133Z,26.20
2018-12-11T06:53:54.908Z,27.80
2018-12-11T06:56:25.283Z,29.70
2018-12-11T06:58:55.194Z,29.00
2018-12-11T07:01:24.409Z,28.80
2018-12-11T07:03:53.971Z,28.50
2018-12-11T07:06:23.127Z,28.40
2018-12-11T07:08:52.330Z,28.50
2018-12-11T07:11:21.576Z,28.60
2018-12-11T07:13:51.637Z,28.70
2018-12-11T07:16:21.893Z,28.80
2018-12-11T07:18:52.071Z,29.00
2018-12-11T07:21:21.135Z,29.00
2018-12-11T07:23:50.272Z,28.90
2018-12-11T07:26:19.392Z,29.00
2018-12-11T07:28:48.964Z,29.00
2018-12-11T07:31:18.078Z,29.00
2018-12-11T07:33:50.879Z,29.10
2018-12-11T07:36:18.683Z,29.20
2018-12-11T07:38:47.811Z,29.20
2018-12-11T07:41:16.980Z,29.20
2018-12-11T07:43:46.296Z,29.30
2018-12-11T07:46:15.555Z,29.30
2018-12-11T07:48:44.839Z,29.30
2018-12-11T07:51:13.899Z,29.30
2018-12-11T07:53:44.023Z,29.40
2018-12-11T07:56:14.024Z,29.30
2018-12-11T07:58:43.674Z,29.50
2018-12-11T08:01:13.870Z,29.50
2018-12-11T08:03:43.428Z,29.50
2018-12-11T08:06:12.518Z,29.50
2018-12-11T08:08:42.531Z,29.50
2018-12-11T08:11:12.488Z,29.50
2018-12-11T08:13:42.417Z,29.60
2018-12-11T08:16:13.159Z,29.50
2018-12-11T08:18:42.283Z,29.60
2018-12-11T08:21:11.396Z,30.20
2018-12-11T08:23:40.655Z,29.70
2018-12-11T08:26:09.807Z,29.60
2018-12-11T08:28:39.779Z,29.80
2018-12-11T08:31:08.958Z,29.90
2018-12-11T08:33:38.110Z,29.90
2018-12-11T08:36:07.705Z,29.90
2018-12-11T08:38:37.015Z,29.90
2018-12-11T08:41:06.972Z,30.00
2018-12-11T08:43:36.256Z,29.90
2018-12-11T08:46:06.379Z,29.90
2018-12-11T08:48:35.475Z,30.00
2018-12-11T08:51:04.585Z,30.00
2018-12-11T08:53:34.666Z,30.00
2018-12-11T08:56:04.923Z,30.10
2018-12-11T08:58:34.628Z,30.10
2018-12-11T09:01:03.951Z,30.20
2018-12-11T09:03:35.415Z,30.20
2018-12-11T09:06:04.974Z,30.20
2018-12-11T09:08:34.189Z,30.20
2018-12-11T09:11:04.005Z,30.20
2018-12-11T09:13:33.527Z,30.20
2018-12-11T09:16:04.258Z,30.30
2018-12-11T09:18:33.323Z,30.30
2018-12-11T09:21:02.397Z,30.30
2018-12-11T09:23:31.634Z,30.20
2018-12-11T09:26:00.820Z,30.30
2018-12-11T09:28:31.353Z,30.10
2018-12-11T09:31:00.556Z,30.10
2018-12-11T09:33:31.076Z,30.30
2018-12-11T09:36:00.337Z,30.20
2018-12-11T09:38:30.152Z,30.10
2018-12-11T09:40:59.276Z,30.10
2018-12-11T09:43:29.082Z,30.10
2018-12-11T09:45:58.427Z,30.20
2018-12-11T09:48:28.274Z,30.00
2018-12-11T09:50:58.112Z,30.00
2018-12-11T09:53:28.260Z,30.00
2018-12-11T09:55:58.048Z,30.00
2018-12-11T09:58:28.759Z,30.00
2018-12-11T10:01:01.839Z,30.10
2018-12-11T10:03:31.795Z,30.00
2018-12-11T10:06:01.028Z,30.00
2018-12-11T10:08:30.116Z,29.90
2018-12-11T10:10:59.224Z,29.90
2018-12-11T10:13:28.299Z,29.90
2018-12-11T10:15:58.157Z,29.90
2018-12-11T10:18:28.335Z,29.90
2018-12-11T10:20:58.256Z,29.90
2018-12-11T10:23:31.811Z,29.90
2018-12-11T10:25:58.724Z,29.90
2018-12-11T10:28:28.737Z,29.90
2018-12-11T10:30:57.816Z,29.90
2018-12-11T10:33:27.021Z,29.90
2018-12-11T10:35:56.166Z,29.90
2018-12-11T10:38:25.892Z,29.80
2018-12-11T10:40:55.875Z,29.90
2018-12-11T10:43:25.507Z,29.90
2018-12-11T10:45:54.676Z,29.90
2018-12-11T10:48:24.530Z,29.90
2018-12-11T10:50:54.332Z,29.80
2018-12-11T10:53:24.273Z,29.80
2018-12-11T10:55:54.988Z,29.80
2018-12-11T10:58:24.512Z,29.60
2018-12-11T11:00:58.971Z,29.70
2018-12-11T11:03:28.590Z,29.70
2018-12-11T11:05:57.648Z,29.80
2018-12-11T11:08:27.704Z,29.90
2018-12-11T11:10:57.436Z,29.90
2018-12-11T11:13:26.520Z,29.90
2018-12-11T11:15:55.726Z,29.90
2018-12-11T11:18:26.141Z,29.90
2018-12-11T11:20:55.305Z,30.00
2018-12-11T11:23:25.201Z,30.00
2018-12-11T11:25:54.452Z,29.90
2018-12-11T11:28:25.199Z,29.90
2018-12-11T11:30:54.689Z,29.90
2018-12-11T11:33:24.155Z,29.90
2018-12-11T11:35:54.514Z,29.90
2018-12-11T11:38:23.621Z,29.90
2018-12-11T11:40:52.763Z,30.20
2018-12-11T11:43:22.784Z,29.90
2018-12-11T11:45:51.884Z,29.80
2018-12-11T11:48:20.995Z,30.20
2018-12-11T11:50:50.363Z,29.90
2018-12-11T11:53:21.369Z,29.90
2018-12-11T11:55:51.916Z,30.10
2018-12-11T11:58:21.928Z,29.90
2018-12-11T12:00:52.127Z,29.90
2018-12-11T12:03:22.561Z,29.90
2018-12-11T12:05:52.279Z,29.90
2018-12-11T12:08:21.575Z,30.20
2018-12-11T12:10:50.728Z,30.20
2018-12-11T12:13:19.874Z,30.10
2018-12-11T12:15:49.035Z,30.20
2018-12-11T12:18:18.988Z,30.20
2018-12-11T12:20:48.092Z,30.30
2018-12-11T12:23:17.269Z,30.00
2018-12-11T12:25:46.454Z,30.00
2018-12-11T12:28:15.960Z,30.10
2018-12-11T12:30:45.670Z,30.00
2018-12-11T12:33:15.509Z,30.30
2018-12-11T12:35:44.572Z,30.30
2018-12-11T12:38:14.574Z,30.40
2018-12-11T12:40:44.532Z,30.50
2018-12-11T12:43:13.656Z,30.80
2018-12-11T12:45:42.819Z,30.80
2018-12-11T12:48:12.172Z,30.90
2018-12-11T12:50:41.356Z,30.90
2018-12-11T12:53:11.860Z,30.80
2018-12-11T12:55:41.871Z,31.00
2018-12-11T12:58:11.709Z,31.10
2018-12-11T13:00:40.784Z,31.00
2018-12-11T13:03:10.429Z,30.90
2018-12-11T13:05:39.646Z,30.90
2018-12-11T13:08:08.800Z,30.80
2018-12-11T13:10:37.967Z,30.80
2018-12-11T13:13:07.086Z,31.40
2018-12-11T13:15:36.224Z,30.80
2018-12-11T13:18:05.884Z,30.70
2018-12-11T13:20:34.968Z,30.70
2018-12-11T13:23:04.052Z,30.50
2018-12-11T13:25:33.207Z,30.50
2018-12-11T13:28:03.452Z,30.40
2018-12-11T13:30:34.066Z,30.40
2018-12-11T13:33:03.212Z,30.30
2018-12-11T13:35:32.281Z,30.20
2018-12-11T13:38:01.454Z,30.10
2018-12-11T13:40:30.879Z,30.10
2018-12-11T13:43:01.672Z,30.00
2018-12-11T13:45:30.803Z,30.00
2018-12-11T13:47:59.967Z,30.00
2018-12-11T13:50:29.198Z,30.00
2018-12-11T13:52:59.291Z,30.00
2018-12-11T13:55:29.176Z,30.00
2018-12-11T13:57:59.324Z,30.00
2018-12-11T14:00:28.387Z,30.00
2018-12-11T14:02:58.421Z,30.00
2018-12-11T14:05:27.635Z,29.90
2018-12-11T14:07:56.825Z,29.90
2018-12-11T14:10:26.007Z,29.90
2018-12-11T14:12:55.204Z,29.90
2018-12-11T14:15:25.441Z,29.90
2018-12-11T14:17:54.517Z,29.90
2018-12-11T14:20:23.620Z,29.80
2018-12-11T14:22:53.275Z,29.80
2018-12-11T14:25:23.337Z,29.80
2018-12-11T14:27:53.560Z,29.70
2018-12-11T14:30:22.718Z,29.70
2018-12-11T14:32:51.776Z,29.80
2018-12-11T14:35:21.452Z,29.70
2018-12-11T14:37:50.728Z,29.70
2018-12-11T14:40:20.296Z,29.70
2018-12-11T14:42:49.381Z,29.80
2018-12-11T14:45:18.592Z,29.70
2018-12-11T14:47:48.602Z,29.70
2018-12-11T14:50:17.746Z,29.60
2018-12-11T14:52:47.884Z,29.70
2018-12-11T14:55:17.810Z,29.70
2018-12-11T14:57:48.621Z,29.70
2018-12-11T15:00:17.990Z,29.70
2018-12-11T15:02:48.193Z,29.60
2018-12-11T15:05:18.559Z,29.60
2018-12-11T15:07:48.015Z,29.70
2018-12-11T15:10:17.169Z,29.60
2018-12-11T15:12:46.208Z,29.60
2018-12-11T15:15:16.055Z,29.50
2018-12-11T15:17:45.928Z,29.60
2018-12-11T15:20:14.999Z,29.60
2018-12-11T15:22:44.120Z,29.60
2018-12-11T15:25:13.220Z,29.60
2018-12-11T15:27:43.018Z,29.60
2018-12-11T15:30:12.088Z,29.60
2018-12-11T15:32:42.423Z,29.60
2018-12-11T15:35:11.511Z,29.60
2018-12-11T15:37:40.604Z,29.50
2018-12-11T15:40:09.690Z,29.50
2018-12-11T15:42:38.793Z,29.50
2018-12-11T15:45:08.154Z,29.60
2018-12-11T15:47:37.624Z,29.60
2018-12-11T15:50:07.281Z,29.60
2018-12-11T15:52:36.356Z,29.50
2018-12-11T15:55:06.741Z,29.60
2018-12-11T15:57:36.331Z,29.50
2018-12-11T16:00:07.335Z,29.60
2018-12-11T16:02:36.439Z,29.60
2018-12-11T16:05:06.669Z,29.60
2018-12-11T16:07:36.431Z,29.70
2018-12-11T16:10:07.357Z,29.60
2018-12-11T16:12:36.418Z,29.70
2018-12-11T16:15:05.800Z,29.60
2018-12-11T16:17:35.545Z,29.60
2018-12-11T16:20:05.306Z,29.60
2018-12-11T16:22:35.119Z,29.50
2018-12-11T16:25:04.612Z,29.50
2018-12-11T16:27:34.844Z,29.40
2018-12-11T16:30:04.503Z,29.50
2018-12-11T16:32:33.628Z,29.40
2018-12-11T16:35:03.173Z,29.40
2018-12-11T16:37:32.486Z,29.50
2018-12-11T16:40:04.604Z,29.30
2018-12-11T16:42:33.150Z,29.30
2018-12-11T16:45:02.410Z,29.00
2018-12-11T16:47:31.821Z,29.30
2018-12-11T16:50:00.901Z,29.40
2018-12-11T16:52:29.986Z,29.40
2018-12-11T16:54:59.641Z,29.40
2018-12-11T16:57:29.582Z,29.30
2018-12-11T16:59:59.407Z,29.40
2018-12-11T17:02:29.065Z,29.30
2018-12-11T17:04:58.588Z,29.30
2018-12-11T17:07:27.949Z,29.40
2018-12-11T17:09:57.434Z,29.40
2018-12-11T17:12:27.421Z,29.40
2018-12-11T17:14:58.509Z,29.40
2018-12-11T17:17:28.644Z,29.50
2018-12-11T17:19:58.190Z,29.30
2018-12-11T17:22:27.322Z,29.50
2018-12-11T17:24:57.744Z,29.40
2018-12-11T17:27:27.412Z,29.30
2018-12-11T17:29:57.264Z,29.30
2018-12-11T17:32:26.388Z,29.60
2018-12-11T17:34:56.127Z,27.90
2018-12-11T17:37:25.933Z,28.50
2018-12-11T17:39:56.734Z,28.80
2018-12-11T17:42:32.544Z,28.80
2018-12-11T17:45:03.757Z,28.80
2018-12-11T17:47:35.040Z,28.80
2018-12-11T17:50:07.398Z,28.80
2018-12-11T17:52:36.558Z,28.80
2018-12-11T17:55:06.485Z,28.80
2018-12-11T17:57:36.275Z,28.80
2018-12-11T18:00:07.111Z,28.80
2018-12-11T18:02:38.334Z,28.90
2018-12-11T18:05:07.771Z,28.90
2018-12-11T18:07:37.262Z,29.00
2018-12-11T18:10:07.357Z,28.90
2018-12-11T18:12:36.484Z,28.90
2018-12-11T18:15:05.886Z,29.00
2018-12-11T18:17:34.988Z,29.00
2018-12-11T18:20:04.815Z,29.00
2018-12-11T18:22:35.324Z,29.10
2018-12-11T18:25:05.480Z,29.10
2018-12-11T18:27:35.328Z,29.10
2018-12-11T18:30:06.097Z,29.10
2018-12-11T18:32:35.163Z,29.10
2018-12-11T18:35:06.612Z,29.10
2018-12-11T18:37:35.817Z,29.10
2018-12-11T18:40:07.133Z,29.10
2018-12-11T18:42:36.634Z,29.10
2018-12-11T18:45:06.629Z,29.20
2018-12-11T18:47:35.698Z,29.20
2018-12-11T18:50:06.859Z,29.10
2018-12-11T18:52:36.403Z,29.20
2018-12-11T18:55:07.067Z,29.20
2018-12-11T18:57:37.445Z,29.30
2018-12-11T19:00:08.604Z,29.30
2018-12-11T19:02:38.657Z,29.50
2018-12-11T19:05:07.855Z,29.30
2018-12-11T19:07:36.906Z,29.50
2018-12-11T19:10:06.672Z,29.40
2018-12-11T19:12:36.269Z,29.60
2018-12-11T19:15:06.122Z,29.80
2018-12-11T19:17:35.292Z,29.90
2018-12-11T19:20:05.172Z,30.00
2018-12-11T19:22:34.557Z,30.10
2018-12-11T19:25:06.551Z,30.20
2018-12-11T19:27:36.464Z,30.50
2018-12-11T19:30:06.565Z,30.60
2018-12-11T19:32:35.942Z,30.70
2018-12-11T19:35:05.685Z,30.90
2018-12-11T19:37:35.773Z,31.50
2018-12-11T19:40:07.411Z,32.20
2018-12-11T19:42:37.941Z,32.70
2018-12-11T19:45:07.886Z,33.30
2018-12-11T19:47:37.003Z,33.80
2018-12-11T19:50:07.675Z,33.90
2018-12-11T19:52:39.945Z,34.10
2018-12-11T19:55:08.972Z,34.30
2018-12-11T19:57:38.413Z,34.60
2018-12-11T20:00:08.308Z,34.70
2018-12-11T20:02:37.525Z,34.70
2018-12-11T20:05:06.848Z,34.70
2018-12-11T20:07:37.840Z,34.90
2018-12-11T20:10:13.400Z,34.90
2018-12-11T20:12:42.466Z,35.20
2018-12-11T20:15:11.954Z,35.20
2018-12-11T20:17:41.078Z,35.30
2018-12-11T20:20:21.554Z,35.30
2018-12-11T20:22:50.900Z,35.40
2018-12-11T20:25:20.175Z,35.20
2018-12-11T20:27:49.773Z,35.40
2018-12-11T20:30:19.009Z,35.30
2018-12-11T20:32:48.164Z,35.40
2018-12-11T20:35:17.899Z,35.20
2018-12-11T20:37:47.339Z,35.40
2018-12-11T20:40:17.558Z,35.40
2018-12-11T20:42:46.880Z,35.70
2018-12-11T20:45:15.935Z,35.80
2018-12-11T20:47:45.776Z,35.90
2018-12-11T20:50:15.526Z,36.00
2018-12-11T20:52:46.345Z,36.80
2018-12-11T20:55:15.691Z,36.00
2018-12-11T20:57:45.468Z,36.20
2018-12-11T21:00:14.700Z,36.40
2018-12-11T21:02:43.803Z,36.50
2018-12-11T21:05:13.010Z,36.60
2018-12-11T21:07:42.111Z,36.80
2018-12-11T21:10:12.061Z,36.80
2018-12-11T21:12:41.128Z,36.80
2018-12-11T21:15:10.338Z,37.20
2018-12-11T21:17:39.530Z,37.10
2018-12-11T21:20:08.766Z,37.30
2018-12-11T21:22:37.891Z,37.60
2018-12-11T21:25:07.161Z,37.70
2018-12-11T21:27:37.283Z,37.60
2018-12-11T21:30:09.224Z,37.40
2018-12-11T21:32:39.256Z,37.30
2018-12-11T21:35:09.811Z,37.00
2018-12-11T21:37:38.852Z,36.60
2018-12-11T21:40:08.225Z,36.40
2018-12-11T21:42:38.155Z,36.10
2018-12-11T21:45:07.537Z,35.90
2018-12-11T21:47:36.701Z,35.50
2018-12-11T21:50:07.744Z,35.20
2018-12-11T21:52:37.903Z,35.30
2018-12-11T21:55:08.383Z,35.10
2018-12-11T21:57:37.864Z,35.40
2018-12-11T22:00:09.885Z,36.70
2018-12-11T22:02:39.163Z,36.10
2018-12-11T22:05:08.462Z,36.10
2018-12-11T22:07:37.580Z,36.00
2018-12-11T22:10:06.978Z,36.30
2018-12-11T22:12:36.125Z,36.60
2018-12-11T22:15:05.848Z,36.60
2018-12-11T22:17:35.020Z,36.90
2018-12-11T22:20:05.676Z,37.00
2018-12-11T22:22:35.107Z,36.90
2018-12-11T22:25:05.195Z,38.30
2018-12-11T22:27:35.177Z,38.10
2018-12-11T22:30:04.681Z,38.00
2018-12-11T22:32:33.773Z,38.10
2018-12-11T22:35:03.181Z,38.30
2018-12-11T22:37:32.317Z,38.60
2018-12-11T22:40:01.951Z,39.20
2018-12-11T22:42:31.687Z,38.60
2018-12-11T22:45:00.764Z,38.60
2018-12-11T22:47:31.137Z,38.60
2018-12-11T22:50:00.987Z,38.60
2018-12-11T22:52:30.811Z,37.80
2018-12-11T22:55:00.527Z,38.20
2018-12-11T22:57:30.214Z,38.20
2018-12-11T22:59:59.572Z,37.90
2018-12-11T23:02:28.723Z,37.90
2018-12-11T23:04:57.828Z,37.60
2018-12-11T23:07:26.897Z,37.50
2018-12-11T23:09:56.259Z,37.30
2018-12-11T23:12:25.360Z,37.10
2018-12-11T23:14:54.929Z,36.90
2018-12-11T23:17:24.819Z,37.10
2018-12-11T23:19:53.992Z,37.50
2018-12-11T23:22:23.028Z,36.90
2018-12-11T23:24:53.192Z,36.80
2018-12-11T23:27:22.742Z,36.90
2018-12-11T23:29:52.574Z,37.00
2018-12-11T23:32:21.677Z,37.10
2018-12-11T23:34:52.366Z,37.20
2018-12-11T23:37:21.820Z,37.30
2018-12-11T23:39:50.907Z,37.40
2018-12-11T23:42:20.008Z,37.60
2018-12-11T23:44:49.060Z,37.70
2018-12-11T23:47:19.087Z,37.70
2018-12-11T23:49:49.647Z,37.70
2018-12-11T23:52:20.139Z,37.90
2018-12-11T23:54:49.852Z,38.00
2018-12-11T23:57:19.656Z,37.90
2018-12-11T23:59:48.730Z,38.00
